createdAt,value
2023-12-05T00:00:14.417Z,56.27
2023-12-05T00:02:42.912Z,56.80
2023-12-05T00:05:12.223Z,56.93
2023-12-05T00:07:41.399Z,57.10
2023-12-05T00:10:11.805Z,56.70
2023-12-05T00:12:40.827Z,57.00
2023-12-05T00:15:10.941Z,57.40
2023-12-05T00:17:39.499Z,58.13
2023-12-05T00:20:09.700Z,57.40
2023-12-05T00:22:39.149Z,56.27
2023-12-05T00:25:08.906Z,55.03
2023-12-05T00:27:38.788Z,58.73
2023-12-05T00:30:09.080Z,59.53
2023-12-05T00:32:37.618Z,57.07
2023-12-05T00:35:07.369Z,58.53
2023-12-05T00:37:35.888Z,59.67
2023-12-05T00:40:05.868Z,58.27
2023-12-05T00:42:34.434Z,58.87
2023-12-05T00:45:04.701Z,60.23
2023-12-05T00:47:33.216Z,58.00
2023-12-05T00:50:01.659Z,60.87
2023-12-05T00:52:30.128Z,60.23
2023-12-05T00:54:59.020Z,61.87
2023-12-05T00:57:27.425Z,61.70
2023-12-05T00:59:56.252Z,60.60
2023-12-05T01:02:26.077Z,59.03
2023-12-05T01:04:54.628Z,61.73
2023-12-05T01:07:23.292Z,59.03
2023-12-05T01:09:51.786Z,63.13
2023-12-05T01:12:21.065Z,64.70
2023-12-05T01:14:51.748Z,60.03
2023-12-05T01:17:20.381Z,61.30
2023-12-05T01:19:50.653Z,62.30
2023-12-05T01:22:19.065Z,60.33
2023-12-05T01:24:55.932Z,58.80
2023-12-05T01:27:24.731Z,58.50
2023-12-05T01:29:53.602Z,63.30
2023-12-05T01:32:22.171Z,61.40
2023-12-05T01:34:51.956Z,57.27
2023-12-05T01:37:20.635Z,60.30
2023-12-05T01:39:49.088Z,57.13
2023-12-05T01:42:17.619Z,61.43
2023-12-05T01:44:46.118Z,60.47
2023-12-05T01:47:17.594Z,60.37
2023-12-05T01:49:48.146Z,61.50
2023-12-05T01:52:18.709Z,58.83
2023-12-05T01:54:47.993Z,60.60
2023-12-05T01:57:17.569Z,63.33
2023-12-05T01:59:46.155Z,65.13
2023-12-05T02:02:15.253Z,60.20
2023-12-05T02:04:45.735Z,63.00
2023-12-05T02:07:15.759Z,61.17
2023-12-05T02:09:47.378Z,65.53
2023-12-05T02:12:15.893Z,64.77
2023-12-05T02:14:44.739Z,59.73
2023-12-05T02:17:22.778Z,62.77
2023-12-05T02:20:07.763Z,59.50
2023-12-05T02:23:03.524Z,60.47
2023-12-05T02:25:56.168Z,59.77
2023-12-05T02:28:26.858Z,63.57
2023-12-05T02:30:55.439Z,63.40
2023-12-05T02:33:24.047Z,62.40
2023-12-05T02:36:03.606Z,64.60
2023-12-05T02:38:42.048Z,67.70
2023-12-05T02:41:18.593Z,62.50
2023-12-05T02:43:53.193Z,63.03
2023-12-05T02:46:23.301Z,61.70
2023-12-05T02:48:52.870Z,67.60
2023-12-05T02:51:22.286Z,66.93
2023-12-05T02:53:50.804Z,66.97
2023-12-05T02:56:20.676Z,65.93
2023-12-05T02:58:50.445Z,63.50
2023-12-05T03:01:18.970Z,65.63
2023-12-05T03:03:47.882Z,63.07
2023-12-05T03:06:16.483Z,63.47
2023-12-05T03:08:44.987Z,63.30
2023-12-05T03:11:13.638Z,65.57
2023-12-05T03:13:42.348Z,68.67
2023-12-05T03:16:12.784Z,63.10
2023-12-05T03:18:42.378Z,63.93
2023-12-05T03:21:11.303Z,65.23
2023-12-05T03:23:40.083Z,62.00
2023-12-05T03:26:09.719Z,63.77
2023-12-05T03:28:38.304Z,62.43
2023-12-05T03:31:07.233Z,63.77
2023-12-05T03:33:39.289Z,62.10
2023-12-05T03:36:09.028Z,62.37
2023-12-05T03:38:39.923Z,63.90
2023-12-05T03:41:10.797Z,62.60
2023-12-05T03:43:39.246Z,62.07
2023-12-05T03:46:08.138Z,61.93
2023-12-05T03:48:38.984Z,61.43
2023-12-05T03:51:08.571Z,59.20
2023-12-05T03:53:37.051Z,60.00
2023-12-05T03:56:06.622Z,58.93
2023-12-05T03:58:35.177Z,60.27
2023-12-05T04:01:03.649Z,62.27
2023-12-05T04:03:32.343Z,59.57
2023-12-05T04:06:02.280Z,60.40
2023-12-05T04:08:30.708Z,58.00
2023-12-05T04:10:59.222Z,57.87
2023-12-05T04:13:30.080Z,59.70
2023-12-05T04:15:59.223Z,60.80
2023-12-05T04:18:27.818Z,57.47
2023-12-05T04:20:56.259Z,54.40
2023-12-05T04:23:26.209Z,56.90
2023-12-05T04:25:54.672Z,58.40
2023-12-05T04:28:23.527Z,58.90
2023-12-05T04:30:51.945Z,57.33
2023-12-05T04:33:20.739Z,58.30
2023-12-05T04:35:49.226Z,57.07
2023-12-05T04:38:18.587Z,56.90
2023-12-05T04:40:48.397Z,57.80
2023-12-05T04:43:17.435Z,57.03
2023-12-05T04:45:47.053Z,57.80
2023-12-05T04:48:15.942Z,58.80
2023-12-05T04:50:47.200Z,55.47
2023-12-05T04:53:15.756Z,58.70
2023-12-05T04:55:44.536Z,57.40
2023-12-05T04:58:14.373Z,57.10
2023-12-05T05:00:43.140Z,61.93
2023-12-05T05:03:12.943Z,60.63
2023-12-05T05:05:41.693Z,64.40
2023-12-05T05:08:10.310Z,60.47
2023-12-05T05:10:38.737Z,65.90
2023-12-05T05:13:07.232Z,64.57
2023-12-05T05:15:37.243Z,64.97
2023-12-05T05:18:05.968Z,63.30
2023-12-05T05:20:34.480Z,62.10
2023-12-05T05:23:03.111Z,63.60
2023-12-05T05:25:32.132Z,60.13
2023-12-05T05:28:00.735Z,61.47
2023-12-05T05:30:29.289Z,60.93
2023-12-05T05:32:59.360Z,59.30
2023-12-05T05:35:27.996Z,61.43
2023-12-05T05:37:56.513Z,59.00
2023-12-05T05:40:27.388Z,63.60
2023-12-05T05:42:56.122Z,57.70
2023-12-05T05:45:27.383Z,63.10
2023-12-05T05:47:55.911Z,61.00
2023-12-05T05:50:25.871Z,60.23
2023-12-05T05:52:54.350Z,59.17
2023-12-05T05:55:26.083Z,60.53
2023-12-05T05:57:55.052Z,56.30
2023-12-05T06:00:24.595Z,54.47
2023-12-05T06:02:53.176Z,56.93
2023-12-05T06:05:21.757Z,57.87
2023-12-05T06:07:51.625Z,59.00
2023-12-05T06:10:20.498Z,60.70
2023-12-05T06:12:49.161Z,57.50
2023-12-05T06:15:17.881Z,59.13
2023-12-05T06:17:49.350Z,57.77
2023-12-05T06:20:18.561Z,58.60
2023-12-05T06:22:47.659Z,58.70
2023-12-05T06:25:17.702Z,58.80
2023-12-05T06:27:47.601Z,57.80
2023-12-05T06:30:21.809Z,57.60
2023-12-05T06:32:55.596Z,56.20
2023-12-05T06:35:24.148Z,57.90
2023-12-05T06:37:54.035Z,56.33
2023-12-05T06:40:23.971Z,59.57
2023-12-05T06:42:52.454Z,58.30
2023-12-05T06:45:20.982Z,56.53
2023-12-05T06:47:49.538Z,56.77
2023-12-05T06:50:18.398Z,58.00
2023-12-05T06:52:47.406Z,57.20
2023-12-05T06:55:16.037Z,55.70
2023-12-05T06:57:46.016Z,56.30
2023-12-05T07:00:16.960Z,52.87
2023-12-05T07:02:49.106Z,56.63
2023-12-05T07:05:17.992Z,58.13
2023-12-05T07:07:46.960Z,58.07
2023-12-05T07:10:15.378Z,59.50
2023-12-05T07:12:45.742Z,60.30
2023-12-05T07:15:14.406Z,58.10
2023-12-05T07:17:42.956Z,59.50
2023-12-05T07:20:12.183Z,58.00
2023-12-05T07:22:40.738Z,57.30
2023-12-05T07:25:09.836Z,55.87
2023-12-05T07:27:38.414Z,54.97
2023-12-05T07:30:10.145Z,57.33
2023-12-05T07:32:38.909Z,57.17
2023-12-05T07:35:08.673Z,54.57
2023-12-05T07:37:37.412Z,55.37
2023-12-05T07:40:07.839Z,55.23
2023-12-05T07:42:36.455Z,58.70
2023-12-05T07:45:06.445Z,57.10
2023-12-05T07:47:36.503Z,58.30
2023-12-05T07:50:05.808Z,58.37
2023-12-05T07:52:34.282Z,57.37
2023-12-05T07:55:02.717Z,56.97
2023-12-05T07:57:31.233Z,57.10
2023-12-05T08:00:00.991Z,59.00
2023-12-05T08:02:29.813Z,53.77
2023-12-05T08:04:59.751Z,51.57
2023-12-05T08:07:28.809Z,43.00
2023-12-05T08:09:58.525Z,42.10
2023-12-05T08:12:27.029Z,40.53
2023-12-05T08:14:55.560Z,38.30
2023-12-05T08:17:24.102Z,35.93
2023-12-05T08:19:52.621Z,35.40
2023-12-05T08:22:23.150Z,36.70
2023-12-05T08:24:52.124Z,34.33
2023-12-05T08:27:20.540Z,34.60
2023-12-05T08:29:48.965Z,35.83
2023-12-05T08:32:17.456Z,35.87
2023-12-05T08:34:46.094Z,35.20
2023-12-05T08:37:14.586Z,34.90
2023-12-05T08:39:44.801Z,35.90
2023-12-05T08:42:13.272Z,37.50
2023-12-05T08:44:41.689Z,35.93
2023-12-05T08:47:10.597Z,36.70
2023-12-05T08:49:39.139Z,37.17
2023-12-05T08:52:07.883Z,35.20
2023-12-05T08:54:36.422Z,36.57
2023-12-05T08:57:06.994Z,36.67
2023-12-05T08:59:35.365Z,35.93
2023-12-05T09:02:06.138Z,37.30
2023-12-05T09:04:34.735Z,37.00
2023-12-05T09:07:03.527Z,34.60
2023-12-05T09:09:32.385Z,38.00
2023-12-05T09:12:01.325Z,35.40
2023-12-05T09:14:31.318Z,35.07
2023-12-05T09:17:00.708Z,35.57
2023-12-05T09:19:29.340Z,35.03
2023-12-05T09:21:58.220Z,32.83
2023-12-05T09:24:27.188Z,34.23
2023-12-05T09:26:55.900Z,33.60
2023-12-05T09:29:24.549Z,32.50
2023-12-05T09:31:54.373Z,33.50
2023-12-05T09:34:23.134Z,35.23
2023-12-05T09:36:51.668Z,32.50
2023-12-05T09:39:20.344Z,32.43
2023-12-05T09:41:54.778Z,33.47
2023-12-05T09:44:24.321Z,35.37
2023-12-05T09:46:59.132Z,33.40
2023-12-05T09:49:29.730Z,33.37
2023-12-05T09:51:59.382Z,32.70
2023-12-05T09:54:28.845Z,33.07
2023-12-05T09:56:59.718Z,32.27
2023-12-05T09:59:28.638Z,30.90
2023-12-05T10:02:04.761Z,34.30
2023-12-05T10:04:43.056Z,31.83
2023-12-05T10:07:12.869Z,31.77
2023-12-05T10:09:43.994Z,30.50
2023-12-05T10:12:14.637Z,30.57
2023-12-05T10:14:43.536Z,30.97
2023-12-05T10:17:13.940Z,29.00
2023-12-05T10:19:42.564Z,28.23
2023-12-05T10:22:11.808Z,30.50
2023-12-05T10:24:47.843Z,29.50
2023-12-05T10:27:17.741Z,32.50
2023-12-05T10:29:46.123Z,32.70
2023-12-05T10:32:16.280Z,32.83
2023-12-05T10:34:50.340Z,36.03
2023-12-05T10:37:23.710Z,35.83
2023-12-05T10:39:53.296Z,34.97
2023-12-05T10:42:22.201Z,35.40
2023-12-05T10:44:50.751Z,37.23
2023-12-05T10:47:20.887Z,35.50
2023-12-05T10:49:50.970Z,34.63
2023-12-05T10:52:21.839Z,35.60
2023-12-05T10:54:57.937Z,38.73
2023-12-05T10:57:34.301Z,35.00
2023-12-05T11:00:06.946Z,33.73
2023-12-05T11:02:40.257Z,34.87
2023-12-05T11:05:12.018Z,31.10
2023-12-05T11:07:40.636Z,34.67
2023-12-05T11:10:10.483Z,30.53
2023-12-05T11:12:41.755Z,31.00
2023-12-05T11:15:13.190Z,30.30
2023-12-05T11:17:54.827Z,29.20
2023-12-05T11:20:45.991Z,31.40
2023-12-05T11:23:39.758Z,31.40
2023-12-05T11:26:45.449Z,33.50
2023-12-05T11:29:50.358Z,32.70
2023-12-05T11:32:28.529Z,34.37
2023-12-05T11:35:12.879Z,34.53
2023-12-05T11:38:14.736Z,35.67
2023-12-05T11:40:43.727Z,33.90
2023-12-05T11:43:14.223Z,36.53
2023-12-05T11:45:44.890Z,32.60
2023-12-05T11:48:15.679Z,33.00
2023-12-05T11:50:47.253Z,34.77
2023-12-05T11:53:17.619Z,32.17
2023-12-05T11:55:49.464Z,33.03
2023-12-05T11:58:29.897Z,31.40
2023-12-05T12:01:07.768Z,31.87
2023-12-05T12:03:48.773Z,31.13
2023-12-05T12:06:22.460Z,31.70
2023-12-05T12:08:55.003Z,34.87
2023-12-05T12:11:24.334Z,33.70
2023-12-05T12:13:53.388Z,35.40
2023-12-05T12:16:24.998Z,34.00
2023-12-05T12:18:55.206Z,35.83
2023-12-05T12:21:31.629Z,34.10
2023-12-05T12:24:00.595Z,33.53
2023-12-05T12:26:33.467Z,32.93
2023-12-05T12:29:09.079Z,36.20
2023-12-05T12:31:38.054Z,35.33
2023-12-05T12:34:09.399Z,35.77
2023-12-05T12:36:39.938Z,36.57
2023-12-05T12:39:08.531Z,37.57
2023-12-05T12:41:37.309Z,35.97
2023-12-05T12:44:07.046Z,32.30
2023-12-05T12:46:35.692Z,32.60
2023-12-05T12:49:29.657Z,31.00
2023-12-05T12:51:59.880Z,31.37
2023-12-05T12:54:28.688Z,31.90
2023-12-05T12:56:57.830Z,32.00
2023-12-05T12:59:26.260Z,33.27
2023-12-05T13:01:55.509Z,34.83
2023-12-05T13:04:25.940Z,32.27
2023-12-05T13:06:57.994Z,31.83
2023-12-05T13:09:27.559Z,33.93
2023-12-05T13:11:56.201Z,34.23
2023-12-05T13:14:24.863Z,35.13
2023-12-05T13:16:53.381Z,33.53
2023-12-05T13:19:28.503Z,32.60
2023-12-05T13:21:58.583Z,36.30
2023-12-05T13:24:27.748Z,31.33
2023-12-05T13:26:59.589Z,32.37
2023-12-05T13:29:28.638Z,32.87
2023-12-05T13:31:57.603Z,33.10
2023-12-05T13:34:26.300Z,31.20
2023-12-05T13:36:55.147Z,34.00
2023-12-05T13:39:25.224Z,33.03
2023-12-05T13:41:53.696Z,32.40
2023-12-05T13:44:22.131Z,32.07
2023-12-05T13:46:50.624Z,32.17
2023-12-05T13:49:19.254Z,32.57
2023-12-05T13:51:47.976Z,32.87
2023-12-05T13:54:16.580Z,33.10
2023-12-05T13:56:46.720Z,31.07
2023-12-05T13:59:15.176Z,32.10
2023-12-05T14:01:43.777Z,32.03
2023-12-05T14:04:12.391Z,31.07
2023-12-05T14:06:41.163Z,30.83
2023-12-05T14:09:10.744Z,31.77
2023-12-05T14:11:44.839Z,29.53
2023-12-05T14:14:15.709Z,28.90
2023-12-05T14:16:44.496Z,31.87
2023-12-05T14:19:13.221Z,31.93
2023-12-05T14:21:41.844Z,32.60
2023-12-05T14:24:10.248Z,29.67
2023-12-05T14:26:39.220Z,31.47
2023-12-05T14:29:07.576Z,29.70
2023-12-05T14:31:39.516Z,30.43
2023-12-05T14:34:09.559Z,31.17
2023-12-05T14:36:38.193Z,29.10
2023-12-05T14:39:10.848Z,29.00
2023-12-05T14:41:39.935Z,29.03
2023-12-05T14:44:08.658Z,29.87
2023-12-05T14:46:38.751Z,31.20
2023-12-05T14:49:07.358Z,29.83
2023-12-05T14:51:36.774Z,32.20
2023-12-05T14:54:05.429Z,31.70
2023-12-05T14:56:33.948Z,34.70
2023-12-05T14:59:02.501Z,35.23
2023-12-05T15:01:31.079Z,34.30
2023-12-05T15:04:02.296Z,32.83
2023-12-05T15:06:30.844Z,31.93
2023-12-05T15:09:00.744Z,29.10
2023-12-05T15:11:32.626Z,30.00
2023-12-05T15:14:01.179Z,26.67
2023-12-05T15:16:29.807Z,27.10
2023-12-05T15:18:58.376Z,25.73
2023-12-05T15:21:29.878Z,27.60
2023-12-05T15:24:00.075Z,28.33
2023-12-05T15:26:28.761Z,27.63
2023-12-05T15:28:57.269Z,27.03
2023-12-05T15:31:25.774Z,28.97
2023-12-05T15:33:56.188Z,28.43
2023-12-05T15:36:24.898Z,29.67
2023-12-05T15:38:54.748Z,31.07
2023-12-05T15:41:23.330Z,31.80
2023-12-05T15:43:52.405Z,31.40
2023-12-05T15:46:25.298Z,32.10
2023-12-05T15:48:53.949Z,32.60
2023-12-05T15:51:22.480Z,36.27
2023-12-05T15:53:50.970Z,34.93
2023-12-05T15:56:20.724Z,34.23
2023-12-05T15:58:51.621Z,38.00
2023-12-05T16:01:20.899Z,39.33
2023-12-05T16:03:50.214Z,37.50
2023-12-05T16:06:19.024Z,37.63
2023-12-05T16:08:48.102Z,39.57
2023-12-05T16:11:17.362Z,39.20
2023-12-05T16:13:48.618Z,39.37
2023-12-05T16:16:17.349Z,38.23
2023-12-05T16:18:46.124Z,37.07
2023-12-05T16:21:14.809Z,37.97
2023-12-05T16:23:43.386Z,39.50
2023-12-05T16:26:12.171Z,35.90
2023-12-05T16:28:40.882Z,34.97
2023-12-05T16:31:10.981Z,36.37
2023-12-05T16:33:39.807Z,35.57
2023-12-05T16:36:10.876Z,36.50
2023-12-05T16:38:39.404Z,36.60
2023-12-05T16:41:08.149Z,38.93
2023-12-05T16:43:36.582Z,38.33
2023-12-05T16:46:05.359Z,37.37
2023-12-05T16:48:35.729Z,37.37
2023-12-05T16:51:04.927Z,38.77
2023-12-05T16:53:33.391Z,35.80
2023-12-05T16:56:03.089Z,37.83
2023-12-05T16:58:31.652Z,37.67
2023-12-05T17:01:00.315Z,38.40
2023-12-05T17:03:29.135Z,36.57
2023-12-05T17:05:59.475Z,37.10
2023-12-05T17:08:27.936Z,38.33
2023-12-05T17:10:59.118Z,37.37
2023-12-05T17:13:27.626Z,37.13
2023-12-05T17:15:56.215Z,36.23
2023-12-05T17:18:25.167Z,36.10
2023-12-05T17:20:53.881Z,36.73
2023-12-05T17:23:23.750Z,35.63
2023-12-05T17:25:52.338Z,36.50
2023-12-05T17:28:20.807Z,37.03
2023-12-05T17:30:49.985Z,33.83
2023-12-05T17:33:19.188Z,34.07
2023-12-05T17:35:48.263Z,37.63
2023-12-05T17:38:17.538Z,39.80
2023-12-05T17:40:47.560Z,37.77
2023-12-05T17:43:16.057Z,37.80
2023-12-05T17:45:44.815Z,34.00
2023-12-05T17:48:13.401Z,35.40
2023-12-05T17:50:42.039Z,35.20
2023-12-05T17:53:10.486Z,35.73
2023-12-05T17:55:38.937Z,36.07
2023-12-05T17:58:08.946Z,35.77
2023-12-05T18:00:37.692Z,36.03
2023-12-05T18:03:06.258Z,35.90
2023-12-05T18:05:34.715Z,36.40
2023-12-05T18:08:08.665Z,34.90
2023-12-05T18:10:37.756Z,36.23
2023-12-05T18:13:06.376Z,35.70
2023-12-05T18:15:36.255Z,35.40
2023-12-05T18:18:05.354Z,36.60
2023-12-05T18:20:33.773Z,36.30
2023-12-05T18:23:02.277Z,35.90
2023-12-05T18:25:30.764Z,37.83
2023-12-05T18:27:59.266Z,35.13
2023-12-05T18:30:28.072Z,35.43
2023-12-05T18:32:59.251Z,35.47
2023-12-05T18:35:27.780Z,36.60
2023-12-05T18:37:56.423Z,38.40
2023-12-05T18:40:25.129Z,37.57
2023-12-05T18:42:54.374Z,35.50
2023-12-05T18:45:23.125Z,38.17
2023-12-05T18:47:51.791Z,38.70
2023-12-05T18:50:22.890Z,37.17
2023-12-05T18:52:51.512Z,37.97
2023-12-05T18:55:20.548Z,38.37
2023-12-05T18:57:49.124Z,38.70
2023-12-05T19:00:19.204Z,38.70
2023-12-05T19:02:48.221Z,36.80
2023-12-05T19:05:17.451Z,35.67
2023-12-05T19:07:47.854Z,36.83
2023-12-05T19:10:16.690Z,36.20
2023-12-05T19:12:46.313Z,34.53
2023-12-05T19:15:16.164Z,34.20
2023-12-05T19:17:44.917Z,34.43
2023-12-05T19:20:13.790Z,35.77
2023-12-05T19:22:42.295Z,33.13
2023-12-05T19:25:12.866Z,38.00
2023-12-05T19:27:41.837Z,34.50
2023-12-05T19:30:11.191Z,36.43
2023-12-05T19:32:39.845Z,36.30
2023-12-05T19:35:10.583Z,39.17
2023-12-05T19:37:39.486Z,37.27
2023-12-05T19:40:11.315Z,34.13
2023-12-05T19:42:39.731Z,33.47
2023-12-05T19:45:09.509Z,34.27
2023-12-05T19:47:37.989Z,33.67
2023-12-05T19:50:08.269Z,31.40
2023-12-05T19:52:36.766Z,31.53
2023-12-05T19:55:07.358Z,32.83
2023-12-05T19:57:37.318Z,31.77
2023-12-05T20:00:07.652Z,30.90
2023-12-05T20:02:36.079Z,31.83
2023-12-05T20:05:05.832Z,32.37
2023-12-05T20:07:34.396Z,33.20
2023-12-05T20:10:02.951Z,34.00
2023-12-05T20:12:31.422Z,30.97
2023-12-05T20:15:01.292Z,30.60
2023-12-05T20:17:29.775Z,32.00
2023-12-05T20:19:58.350Z,31.67
2023-12-05T20:22:29.396Z,31.97
2023-12-05T20:24:58.507Z,30.70
2023-12-05T20:27:27.950Z,27.53
2023-12-05T20:29:57.502Z,29.67
2023-12-05T20:32:27.465Z,28.53
2023-12-05T20:34:57.688Z,29.63
2023-12-05T20:37:26.156Z,31.80
2023-12-05T20:39:54.706Z,32.50
2023-12-05T20:42:27.732Z,30.60
2023-12-05T20:44:56.813Z,32.60
2023-12-05T20:47:27.107Z,31.20
2023-12-05T20:49:55.589Z,32.60
2023-12-05T20:52:25.504Z,33.80
2023-12-05T20:54:54.038Z,35.03
2023-12-05T20:57:22.395Z,34.27
2023-12-05T20:59:50.856Z,32.70
2023-12-05T21:02:19.870Z,34.60
2023-12-05T21:04:50.373Z,34.07
2023-12-05T21:07:20.951Z,34.07
2023-12-05T21:09:50.186Z,34.77
2023-12-05T21:12:19.066Z,35.07
2023-12-05T21:14:47.884Z,35.00
2023-12-05T21:17:16.370Z,36.60
2023-12-05T21:19:44.893Z,33.63
2023-12-05T21:22:14.864Z,36.87
2023-12-05T21:24:43.429Z,34.27
2023-12-05T21:27:11.967Z,31.83
2023-12-05T21:29:40.397Z,33.33
2023-12-05T21:32:09.082Z,34.27
2023-12-05T21:34:42.989Z,33.73
2023-12-05T21:37:11.809Z,34.60
2023-12-05T21:39:41.823Z,35.13
2023-12-05T21:42:10.361Z,36.00
2023-12-05T21:44:41.547Z,38.47
2023-12-05T21:47:10.405Z,36.00
2023-12-05T21:49:39.066Z,35.53
2023-12-05T21:52:08.778Z,37.47
2023-12-05T21:54:37.440Z,37.47
2023-12-05T21:57:07.586Z,38.50
2023-12-05T21:59:36.091Z,35.20
2023-12-05T22:02:04.589Z,38.17
2023-12-05T22:04:34.353Z,34.87
2023-12-05T22:07:03.144Z,35.77
2023-12-05T22:09:31.995Z,37.17
2023-12-05T22:12:00.513Z,35.43
2023-12-05T22:14:30.367Z,35.67
2023-12-05T22:16:58.856Z,33.90
2023-12-05T22:19:27.330Z,36.93
2023-12-05T22:21:55.873Z,36.30
2023-12-05T22:24:29.851Z,35.60
2023-12-05T22:27:01.377Z,33.60
2023-12-05T22:29:31.866Z,34.50
2023-12-05T22:32:00.443Z,31.73
2023-12-05T22:34:29.017Z,35.53
2023-12-05T22:36:57.618Z,31.57
2023-12-05T22:39:26.618Z,34.63
2023-12-05T22:41:55.505Z,31.27
2023-12-05T22:44:26.931Z,32.33
2023-12-05T22:46:56.693Z,32.00
2023-12-05T22:49:25.171Z,29.83
2023-12-05T22:51:53.760Z,31.33
2023-12-05T22:54:22.775Z,32.17
2023-12-05T22:56:51.197Z,30.67
2023-12-05T22:59:19.946Z,30.70
2023-12-05T23:01:48.738Z,32.40
2023-12-05T23:04:18.967Z,32.43
2023-12-05T23:06:47.878Z,32.00
2023-12-05T23:09:16.564Z,33.00
2023-12-05T23:11:46.538Z,33.27
2023-12-05T23:14:15.040Z,31.17
2023-12-05T23:16:43.657Z,28.63
2023-12-05T23:19:12.094Z,30.07
2023-12-05T23:21:42.071Z,31.87
2023-12-05T23:24:10.655Z,28.77
2023-12-05T23:26:39.147Z,29.43
2023-12-05T23:29:07.648Z,28.50
2023-12-05T23:31:36.110Z,29.60
2023-12-05T23:34:04.775Z,27.40
2023-12-05T23:36:33.328Z,28.27
2023-12-05T23:39:03.510Z,27.23
2023-12-05T23:41:31.990Z,28.63
2023-12-05T23:44:00.408Z,27.17
2023-12-05T23:46:28.925Z,27.40
2023-12-05T23:48:58.110Z,26.53
2023-12-05T23:51:26.552Z,27.53
2023-12-05T23:53:55.563Z,27.10
2023-12-05T23:56:25.444Z,26.00
2023-12-05T23:58:55.223Z,25.70
